sensor_id;sensor_type;location;lat;lon;timestamp;P1;durP1;ratioP1;P2;durP2;ratioP2
46429;SDS011;32131;53.454;-6.180;2023-10-31T00:00:06;26.45;;;10.00;;
46429;SDS011;32131;53.454;-6.180;2023-10-31T00:02:36;16.13;;;10.57;;
46429;SDS011;32131;53.454;-6.180;2023-10-31T00:05:05;24.90;;;11.18;;
46429;SDS011;32131;53.454;-6.180;2023-10-31T00:07:34;23.27;;;12.30;;
46429;SDS011;32131;53.454;-6.180;2023-10-31T00:10:05;18.35;;;10.90;;
46429;SDS011;32131;53.454;-6.180;2023-10-31T00:12:33;21.55;;;11.15;;
46429;SDS011;32131;53.454;-6.180;2023-10-31T00:15:02;18.27;;;11.23;;
46429;SDS011;32131;53.454;-6.180;2023-10-31T00:17:34;25.08;;;11.18;;
46429;SDS011;32131;53.454;-6.180;2023-10-31T00:20:02;20.50;;;11.38;;
46429;SDS011;32131;53.454;-6.180;2023-10-31T00:22:32;28.08;;;11.18;;
46429;SDS011;32131;53.454;-6.180;2023-10-31T00:25:00;21.45;;;10.73;;
46429;SDS011;32131;53.454;-6.180;2023-10-31T00:27:32;24.58;;;13.07;;
46429;SDS011;32131;53.454;-6.180;2023-10-31T00:30:04;31.45;;;13.55;;
46429;SDS011;32131;53.454;-6.180;2023-10-31T00:32:34;32.90;;;14.27;;
46429;SDS011;32131;53.454;-6.180;2023-10-31T00:35:02;29.33;;;14.20;;
46429;SDS011;32131;53.454;-6.180;2023-10-31T00:37:31;27.10;;;14.93;;
46429;SDS011;32131;53.454;-6.180;2023-10-31T00:40:01;29.48;;;13.75;;
46429;SDS011;32131;53.454;-6.180;2023-10-31T00:42:34;25.40;;;14.25;;
46429;SDS011;32131;53.454;-6.180;2023-10-31T00:45:02;35.83;;;14.45;;
46429;SDS011;32131;53.454;-6.180;2023-10-31T00:47:35;28.17;;;13.20;;
46429;SDS011;32131;53.454;-6.180;2023-10-31T00:50:04;19.35;;;10.95;;
46429;SDS011;32131;53.454;-6.180;2023-10-31T00:52:34;18.02;;;11.05;;
46429;SDS011;32131;53.454;-6.180;2023-10-31T00:55:03;19.92;;;12.07;;
46429;SDS011;32131;53.454;-6.180;2023-10-31T00:57:36;24.98;;;12.45;;
46429;SDS011;32131;53.454;-6.180;2023-10-31T01:00:06;15.55;;;10.27;;
46429;SDS011;32131;53.454;-6.180;2023-10-31T01:02:38;21.73;;;10.02;;
46429;SDS011;32131;53.454;-6.180;2023-10-31T01:05:07;21.05;;;8.77;;
46429;SDS011;32131;53.454;-6.180;2023-10-31T01:07:36;25.55;;;9.75;;
46429;SDS011;32131;53.454;-6.180;2023-10-31T01:10:05;13.30;;;9.00;;
46429;SDS011;32131;53.454;-6.180;2023-10-31T01:12:36;14.10;;;8.45;;
46429;SDS011;32131;53.454;-6.180;2023-10-31T01:15:05;13.57;;;7.68;;
46429;SDS011;32131;53.454;-6.180;2023-10-31T01:17:34;16.10;;;8.75;;
46429;SDS011;32131;53.454;-6.180;2023-10-31T01:20:04;14.27;;;8.43;;
46429;SDS011;32131;53.454;-6.180;2023-10-31T01:22:35;19.63;;;8.55;;
46429;SDS011;32131;53.454;-6.180;2023-10-31T01:25:06;14.55;;;7.22;;
46429;SDS011;32131;53.454;-6.180;2023-10-31T01:27:36;15.98;;;7.57;;
46429;SDS011;32131;53.454;-6.180;2023-10-31T01:30:05;14.35;;;6.97;;
46429;SDS011;32131;53.454;-6.180;2023-10-31T01:32:34;18.15;;;7.10;;
46429;SDS011;32131;53.454;-6.180;2023-10-31T01:35:06;16.50;;;6.95;;
46429;SDS011;32131;53.454;-6.180;2023-10-31T01:37:35;11.52;;;4.80;;
46429;SDS011;32131;53.454;-6.180;2023-10-31T01:40:05;9.05;;;4.57;;
46429;SDS011;32131;53.454;-6.180;2023-10-31T01:42:38;17.95;;;4.93;;
46429;SDS011;32131;53.454;-6.180;2023-10-31T01:47:36;13.60;;;4.95;;
46429;SDS011;32131;53.454;-6.180;2023-10-31T01:50:09;17.48;;;5.43;;
46429;SDS011;32131;53.454;-6.180;2023-10-31T01:52:38;17.05;;;6.10;;
46429;SDS011;32131;53.454;-6.180;2023-10-31T01:55:07;15.13;;;4.05;;
46429;SDS011;32131;53.454;-6.180;2023-10-31T01:57:36;9.60;;;3.75;;
46429;SDS011;32131;53.454;-6.180;2023-10-31T02:00:07;12.48;;;3.08;;
46429;SDS011;32131;53.454;-6.180;2023-10-31T02:02:36;10.57;;;2.70;;
46429;SDS011;32131;53.454;-6.180;2023-10-31T02:05:08;11.93;;;2.50;;
46429;SDS011;32131;53.454;-6.180;2023-10-31T02:07:37;12.70;;;3.33;;
46429;SDS011;32131;53.454;-6.180;2023-10-31T02:10:05;12.43;;;2.78;;
46429;SDS011;32131;53.454;-6.180;2023-10-31T02:12:34;13.53;;;3.03;;
46429;SDS011;32131;53.454;-6.180;2023-10-31T02:15:09;8.38;;;2.85;;
46429;SDS011;32131;53.454;-6.180;2023-10-31T02:17:38;10.90;;;2.53;;
46429;SDS011;32131;53.454;-6.180;2023-10-31T02:20:07;8.02;;;2.30;;
46429;SDS011;32131;53.454;-6.180;2023-10-31T02:22:37;11.23;;;2.50;;
46429;SDS011;32131;53.454;-6.180;2023-10-31T02:25:15;15.32;;;2.35;;
46429;SDS011;32131;53.454;-6.180;2023-10-31T02:27:44;14.57;;;2.53;;
46429;SDS011;32131;53.454;-6.180;2023-10-31T02:30:12;13.85;;;3.20;;
46429;SDS011;32131;53.454;-6.180;2023-10-31T02:32:44;16.50;;;2.95;;
46429;SDS011;32131;53.454;-6.180;2023-10-31T02:37:46;22.65;;;4.88;;
46429;SDS011;32131;53.454;-6.180;2023-10-31T02:40:16;14.70;;;4.72;;
46429;SDS011;32131;53.454;-6.180;2023-10-31T02:42:45;19.67;;;5.28;;
46429;SDS011;32131;53.454;-6.180;2023-10-31T02:45:13;16.73;;;5.65;;
46429;SDS011;32131;53.454;-6.180;2023-10-31T02:47:42;15.48;;;5.57;;
46429;SDS011;32131;53.454;-6.180;2023-10-31T02:50:12;19.33;;;6.63;;
46429;SDS011;32131;53.454;-6.180;2023-10-31T02:52:40;18.75;;;6.53;;
46429;SDS011;32131;53.454;-6.180;2023-10-31T02:55:11;19.17;;;5.93;;
46429;SDS011;32131;53.454;-6.180;2023-10-31T02:57:40;22.20;;;8.00;;
46429;SDS011;32131;53.454;-6.180;2023-10-31T03:00:10;17.45;;;7.75;;
46429;SDS011;32131;53.454;-6.180;2023-10-31T03:02:40;21.67;;;8.32;;
46429;SDS011;32131;53.454;-6.180;2023-10-31T03:05:09;23.10;;;7.72;;
46429;SDS011;32131;53.454;-6.180;2023-10-31T03:07:38;20.30;;;8.27;;
46429;SDS011;32131;53.454;-6.180;2023-10-31T03:10:07;34.05;;;8.93;;
46429;SDS011;32131;53.454;-6.180;2023-10-31T03:12:38;25.17;;;8.35;;
46429;SDS011;32131;53.454;-6.180;2023-10-31T03:15:07;22.33;;;7.40;;
46429;SDS011;32131;53.454;-6.180;2023-10-31T03:20:05;19.15;;;6.57;;
46429;SDS011;32131;53.454;-6.180;2023-10-31T03:22:35;19.95;;;7.07;;
46429;SDS011;32131;53.454;-6.180;2023-10-31T03:25:04;19.02;;;7.95;;
46429;SDS011;32131;53.454;-6.180;2023-10-31T03:27:35;21.58;;;8.85;;
46429;SDS011;32131;53.454;-6.180;2023-10-31T03:30:06;25.80;;;8.82;;
46429;SDS011;32131;53.454;-6.180;2023-10-31T03:35:05;23.77;;;9.00;;
46429;SDS011;32131;53.454;-6.180;2023-10-31T03:37:34;30.98;;;9.18;;
46429;SDS011;32131;53.454;-6.180;2023-10-31T03:40:08;34.47;;;11.30;;
46429;SDS011;32131;53.454;-6.180;2023-10-31T03:42:38;39.03;;;11.68;;
46429;SDS011;32131;53.454;-6.180;2023-10-31T03:45:07;36.47;;;11.77;;
46429;SDS011;32131;53.454;-6.180;2023-10-31T03:47:36;36.78;;;12.23;;
46429;SDS011;32131;53.454;-6.180;2023-10-31T03:50:05;36.22;;;12.98;;
46429;SDS011;32131;53.454;-6.180;2023-10-31T03:52:36;36.45;;;13.40;;
46429;SDS011;32131;53.454;-6.180;2023-10-31T03:55:06;38.30;;;13.85;;
46429;SDS011;32131;53.454;-6.180;2023-10-31T03:57:35;33.35;;;12.57;;
46429;SDS011;32131;53.454;-6.180;2023-10-31T04:00:05;32.90;;;13.73;;
46429;SDS011;32131;53.454;-6.180;2023-10-31T04:02:35;30.88;;;13.43;;
46429;SDS011;32131;53.454;-6.180;2023-10-31T04:05:06;37.40;;;13.38;;
46429;SDS011;32131;53.454;-6.180;2023-10-31T04:07:35;39.10;;;13.87;;
46429;SDS011;32131;53.454;-6.180;2023-10-31T04:10:05;31.35;;;12.45;;
46429;SDS011;32131;53.454;-6.180;2023-10-31T04:12:37;35.65;;;13.40;;
46429;SDS011;32131;53.454;-6.180;2023-10-31T04:15:10;37.42;;;14.07;;
46429;SDS011;32131;53.454;-6.180;2023-10-31T04:17:41;33.88;;;14.10;;
46429;SDS011;32131;53.454;-6.180;2023-10-31T04:20:10;28.80;;;13.43;;
46429;SDS011;32131;53.454;-6.180;2023-10-31T04:22:42;32.67;;;13.93;;
46429;SDS011;32131;53.454;-6.180;2023-10-31T04:25:10;33.13;;;13.45;;
46429;SDS011;32131;53.454;-6.180;2023-10-31T04:27:40;43.25;;;13.85;;
46429;SDS011;32131;53.454;-6.180;2023-10-31T04:30:12;25.02;;;12.77;;
46429;SDS011;32131;53.454;-6.180;2023-10-31T04:32:42;26.00;;;12.88;;
46429;SDS011;32131;53.454;-6.180;2023-10-31T04:35:12;29.83;;;12.98;;
46429;SDS011;32131;53.454;-6.180;2023-10-31T04:37:46;26.30;;;11.45;;
46429;SDS011;32131;53.454;-6.180;2023-10-31T04:40:14;22.40;;;11.73;;
46429;SDS011;32131;53.454;-6.180;2023-10-31T04:42:45;18.20;;;10.93;;
46429;SDS011;32131;53.454;-6.180;2023-10-31T04:47:47;24.20;;;10.85;;
46429;SDS011;32131;53.454;-6.180;2023-10-31T04:50:18;16.92;;;9.48;;
46429;SDS011;32131;53.454;-6.180;2023-10-31T04:52:46;21.17;;;10.35;;
46429;SDS011;32131;53.454;-6.180;2023-10-31T04:55:15;21.10;;;10.23;;
46429;SDS011;32131;53.454;-6.180;2023-10-31T04:57:44;22.75;;;10.60;;
46429;SDS011;32131;53.454;-6.180;2023-10-31T05:00:14;18.27;;;10.15;;
46429;SDS011;32131;53.454;-6.180;2023-10-31T05:02:45;24.35;;;11.13;;
46429;SDS011;32131;53.454;-6.180;2023-10-31T05:05:15;21.83;;;10.68;;
46429;SDS011;32131;53.454;-6.180;2023-10-31T05:10:13;31.13;;;10.67;;
46429;SDS011;32131;53.454;-6.180;2023-10-31T05:12:41;21.83;;;11.10;;
46429;SDS011;32131;53.454;-6.180;2023-10-31T05:15:10;22.88;;;11.35;;
46429;SDS011;32131;53.454;-6.180;2023-10-31T05:17:42;25.45;;;11.85;;
46429;SDS011;32131;53.454;-6.180;2023-10-31T05:20:10;23.95;;;11.30;;
46429;SDS011;32131;53.454;-6.180;2023-10-31T05:22:42;23.88;;;11.95;;
46429;SDS011;32131;53.454;-6.180;2023-10-31T05:25:10;23.02;;;11.50;;
46429;SDS011;32131;53.454;-6.180;2023-10-31T05:27:39;27.13;;;10.98;;
46429;SDS011;32131;53.454;-6.180;2023-10-31T05:30:12;20.27;;;10.40;;
46429;SDS011;32131;53.454;-6.180;2023-10-31T05:32:50;21.77;;;11.70;;
46429;SDS011;32131;53.454;-6.180;2023-10-31T05:35:19;25.50;;;11.70;;
46429;SDS011;32131;53.454;-6.180;2023-10-31T05:37:48;26.30;;;12.90;;
46429;SDS011;32131;53.454;-6.180;2023-10-31T05:40:17;25.00;;;13.07;;
46429;SDS011;32131;53.454;-6.180;2023-10-31T05:42:52;31.58;;;14.07;;
46429;SDS011;32131;53.454;-6.180;2023-10-31T05:45:23;27.52;;;13.82;;
46429;SDS011;32131;53.454;-6.180;2023-10-31T05:47:58;26.02;;;12.68;;
46429;SDS011;32131;53.454;-6.180;2023-10-31T05:50:27;29.63;;;14.65;;
46429;SDS011;32131;53.454;-6.180;2023-10-31T05:53:01;30.85;;;14.18;;
46429;SDS011;32131;53.454;-6.180;2023-10-31T05:55:32;30.15;;;14.68;;
46429;SDS011;32131;53.454;-6.180;2023-10-31T05:58:06;26.00;;;13.48;;
46429;SDS011;32131;53.454;-6.180;2023-10-31T06:00:35;31.65;;;12.60;;
46429;SDS011;32131;53.454;-6.180;2023-10-31T06:03:06;19.63;;;10.48;;
46429;SDS011;32131;53.454;-6.180;2023-10-31T06:05:35;23.63;;;11.38;;
46429;SDS011;32131;53.454;-6.180;2023-10-31T06:08:05;24.20;;;10.73;;
46429;SDS011;32131;53.454;-6.180;2023-10-31T06:10:34;23.48;;;10.90;;
46429;SDS011;32131;53.454;-6.180;2023-10-31T06:13:16;21.23;;;9.95;;
46429;SDS011;32131;53.454;-6.180;2023-10-31T06:15:44;20.88;;;9.00;;
46429;SDS011;32131;53.454;-6.180;2023-10-31T06:18:14;21.63;;;10.20;;
46429;SDS011;32131;53.454;-6.180;2023-10-31T06:20:42;22.52;;;9.75;;
46429;SDS011;32131;53.454;-6.180;2023-10-31T06:23:10;24.85;;;10.63;;
46429;SDS011;32131;53.454;-6.180;2023-10-31T06:25:39;24.02;;;10.10;;
46429;SDS011;32131;53.454;-6.180;2023-10-31T06:28:07;21.58;;;10.15;;
46429;SDS011;32131;53.454;-6.180;2023-10-31T06:30:37;18.40;;;8.50;;
46429;SDS011;32131;53.454;-6.180;2023-10-31T06:33:05;14.02;;;6.53;;
46429;SDS011;32131;53.454;-6.180;2023-10-31T06:35:35;12.07;;;6.38;;
46429;SDS011;32131;53.454;-6.180;2023-10-31T06:38:04;9.98;;;5.63;;
46429;SDS011;32131;53.454;-6.180;2023-10-31T06:40:32;10.18;;;5.22;;
46429;SDS011;32131;53.454;-6.180;2023-10-31T06:43:03;10.13;;;5.18;;
46429;SDS011;32131;53.454;-6.180;2023-10-31T06:45:32;16.95;;;6.20;;
46429;SDS011;32131;53.454;-6.180;2023-10-31T06:48:04;17.02;;;7.40;;
46429;SDS011;32131;53.454;-6.180;2023-10-31T06:50:33;16.17;;;8.88;;
46429;SDS011;32131;53.454;-6.180;2023-10-31T06:53:05;19.30;;;9.13;;
46429;SDS011;32131;53.454;-6.180;2023-10-31T06:55:35;18.58;;;8.93;;
46429;SDS011;32131;53.454;-6.180;2023-10-31T06:58:04;17.95;;;9.25;;
46429;SDS011;32131;53.454;-6.180;2023-10-31T07:00:35;17.23;;;9.40;;
46429;SDS011;32131;53.454;-6.180;2023-10-31T07:03:06;19.52;;;9.10;;
46429;SDS011;32131;53.454;-6.180;2023-10-31T07:05:36;16.70;;;9.55;;
46429;SDS011;32131;53.454;-6.180;2023-10-31T07:08:08;17.73;;;9.73;;
46429;SDS011;32131;53.454;-6.180;2023-10-31T07:10:38;20.40;;;10.20;;
46429;SDS011;32131;53.454;-6.180;2023-10-31T07:13:09;17.90;;;9.13;;
46429;SDS011;32131;53.454;-6.180;2023-10-31T07:15:37;16.85;;;9.02;;
46429;SDS011;32131;53.454;-6.180;2023-10-31T07:18:06;18.30;;;8.45;;
46429;SDS011;32131;53.454;-6.180;2023-10-31T07:20:35;16.90;;;8.82;;
46429;SDS011;32131;53.454;-6.180;2023-10-31T07:23:07;21.27;;;9.45;;
46429;SDS011;32131;53.454;-6.180;2023-10-31T07:25:36;22.27;;;10.60;;
46429;SDS011;32131;53.454;-6.180;2023-10-31T07:28:04;21.00;;;11.10;;
46429;SDS011;32131;53.454;-6.180;2023-10-31T07:30:36;17.73;;;10.43;;
46429;SDS011;32131;53.454;-6.180;2023-10-31T07:33:06;23.55;;;11.32;;
46429;SDS011;32131;53.454;-6.180;2023-10-31T07:35:35;19.25;;;10.00;;
46429;SDS011;32131;53.454;-6.180;2023-10-31T07:38:07;25.23;;;10.43;;
46429;SDS011;32131;53.454;-6.180;2023-10-31T07:40:37;19.23;;;9.52;;
46429;SDS011;32131;53.454;-6.180;2023-10-31T07:43:06;21.88;;;10.10;;
46429;SDS011;32131;53.454;-6.180;2023-10-31T07:45:34;15.25;;;8.77;;
46429;SDS011;32131;53.454;-6.180;2023-10-31T07:48:06;16.33;;;8.80;;
46429;SDS011;32131;53.454;-6.180;2023-10-31T07:50:35;14.25;;;8.18;;
46429;SDS011;32131;53.454;-6.180;2023-10-31T07:53:07;17.60;;;8.05;;
46429;SDS011;32131;53.454;-6.180;2023-10-31T07:55:36;16.13;;;6.95;;
46429;SDS011;32131;53.454;-6.180;2023-10-31T07:58:05;10.93;;;5.82;;
46429;SDS011;32131;53.454;-6.180;2023-10-31T08:00:35;13.10;;;7.20;;
46429;SDS011;32131;53.454;-6.180;2023-10-31T08:05:34;11.57;;;6.65;;
46429;SDS011;32131;53.454;-6.180;2023-10-31T08:08:03;14.67;;;7.90;;
46429;SDS011;32131;53.454;-6.180;2023-10-31T08:10:34;13.77;;;8.13;;
46429;SDS011;32131;53.454;-6.180;2023-10-31T08:13:02;13.95;;;7.13;;
46429;SDS011;32131;53.454;-6.180;2023-10-31T08:15:34;12.93;;;6.43;;
46429;SDS011;32131;53.454;-6.180;2023-10-31T08:18:06;9.00;;;5.90;;
46429;SDS011;32131;53.454;-6.180;2023-10-31T08:20:34;13.82;;;6.57;;
46429;SDS011;32131;53.454;-6.180;2023-10-31T08:23:05;10.80;;;5.95;;
46429;SDS011;32131;53.454;-6.180;2023-10-31T08:25:35;11.40;;;6.30;;
46429;SDS011;32131;53.454;-6.180;2023-10-31T08:28:04;13.15;;;5.30;;
46429;SDS011;32131;53.454;-6.180;2023-10-31T08:30:32;7.78;;;4.43;;
46429;SDS011;32131;53.454;-6.180;2023-10-31T08:33:05;10.85;;;6.30;;
46429;SDS011;32131;53.454;-6.180;2023-10-31T08:35:37;12.30;;;5.25;;
46429;SDS011;32131;53.454;-6.180;2023-10-31T08:38:07;10.45;;;5.32;;
46429;SDS011;32131;53.454;-6.180;2023-10-31T08:40:53;8.10;;;4.55;;
46429;SDS011;32131;53.454;-6.180;2023-10-31T08:43:24;8.55;;;4.45;;
46429;SDS011;32131;53.454;-6.180;2023-10-31T08:45:53;8.65;;;5.35;;
46429;SDS011;32131;53.454;-6.180;2023-10-31T08:48:21;10.30;;;4.78;;
46429;SDS011;32131;53.454;-6.180;2023-10-31T08:50:50;9.38;;;4.88;;
46429;SDS011;32131;53.454;-6.180;2023-10-31T08:53:18;9.77;;;4.72;;
46429;SDS011;32131;53.454;-6.180;2023-10-31T08:55:47;6.75;;;4.28;;
46429;SDS011;32131;53.454;-6.180;2023-10-31T08:58:17;8.07;;;4.50;;
46429;SDS011;32131;53.454;-6.180;2023-10-31T09:00:48;9.15;;;5.25;;
46429;SDS011;32131;53.454;-6.180;2023-10-31T09:03:17;6.63;;;4.63;;
46429;SDS011;32131;53.454;-6.180;2023-10-31T09:05:46;10.23;;;4.75;;
46429;SDS011;32131;53.454;-6.180;2023-10-31T09:08:15;7.40;;;4.70;;
46429;SDS011;32131;53.454;-6.180;2023-10-31T09:10:49;6.95;;;3.80;;
46429;SDS011;32131;53.454;-6.180;2023-10-31T09:13:19;7.13;;;3.70;;
46429;SDS011;32131;53.454;-6.180;2023-10-31T09:15:48;10.52;;;3.97;;
46429;SDS011;32131;53.454;-6.180;2023-10-31T09:18:17;7.13;;;3.95;;
46429;SDS011;32131;53.454;-6.180;2023-10-31T09:20:46;6.82;;;4.00;;
46429;SDS011;32131;53.454;-6.180;2023-10-31T09:23:16;7.55;;;4.22;;
46429;SDS011;32131;53.454;-6.180;2023-10-31T09:25:45;6.30;;;3.97;;
46429;SDS011;32131;53.454;-6.180;2023-10-31T09:28:14;9.35;;;3.75;;
46429;SDS011;32131;53.454;-6.180;2023-10-31T09:30:44;11.20;;;4.65;;
46429;SDS011;32131;53.454;-6.180;2023-10-31T09:33:12;6.50;;;4.18;;
46429;SDS011;32131;53.454;-6.180;2023-10-31T09:35:44;7.38;;;4.38;;
46429;SDS011;32131;53.454;-6.180;2023-10-31T09:38:18;9.45;;;3.88;;
46429;SDS011;32131;53.454;-6.180;2023-10-31T09:40:48;9.30;;;4.13;;
46429;SDS011;32131;53.454;-6.180;2023-10-31T09:43:18;11.60;;;4.10;;
46429;SDS011;32131;53.454;-6.180;2023-10-31T09:45:48;7.38;;;3.90;;
46429;SDS011;32131;53.454;-6.180;2023-10-31T09:48:18;8.43;;;3.65;;
46429;SDS011;32131;53.454;-6.180;2023-10-31T09:50:49;5.82;;;3.30;;
46429;SDS011;32131;53.454;-6.180;2023-10-31T09:53:20;5.53;;;2.70;;
46429;SDS011;32131;53.454;-6.180;2023-10-31T09:55:49;7.28;;;2.80;;
46429;SDS011;32131;53.454;-6.180;2023-10-31T09:58:20;7.45;;;3.75;;
46429;SDS011;32131;53.454;-6.180;2023-10-31T10:00:58;7.15;;;2.80;;
46429;SDS011;32131;53.454;-6.180;2023-10-31T10:03:27;5.28;;;2.53;;
46429;SDS011;32131;53.454;-6.180;2023-10-31T10:05:57;4.22;;;2.72;;
46429;SDS011;32131;53.454;-6.180;2023-10-31T10:08:26;4.13;;;2.60;;
46429;SDS011;32131;53.454;-6.180;2023-10-31T10:10:54;4.05;;;2.13;;
46429;SDS011;32131;53.454;-6.180;2023-10-31T10:13:24;4.60;;;2.72;;
46429;SDS011;32131;53.454;-6.180;2023-10-31T10:15:52;4.18;;;2.35;;
46429;SDS011;32131;53.454;-6.180;2023-10-31T10:18:26;3.50;;;2.13;;
46429;SDS011;32131;53.454;-6.180;2023-10-31T10:20:56;4.90;;;2.47;;
46429;SDS011;32131;53.454;-6.180;2023-10-31T10:23:26;4.28;;;2.65;;
46429;SDS011;32131;53.454;-6.180;2023-10-31T10:26:01;6.15;;;2.22;;
46429;SDS011;32131;53.454;-6.180;2023-10-31T10:28:34;3.72;;;1.67;;
46429;SDS011;32131;53.454;-6.180;2023-10-31T10:31:44;2.97;;;1.92;;
46429;SDS011;32131;53.454;-6.180;2023-10-31T10:34:18;4.43;;;2.30;;
46429;SDS011;32131;53.454;-6.180;2023-10-31T10:36:48;2.45;;;1.30;;
46429;SDS011;32131;53.454;-6.180;2023-10-31T10:42:09;3.33;;;1.65;;
46429;SDS011;32131;53.454;-6.180;2023-10-31T10:44:48;2.90;;;1.60;;
46429;SDS011;32131;53.454;-6.180;2023-10-31T10:47:22;4.75;;;2.10;;
46429;SDS011;32131;53.454;-6.180;2023-10-31T10:49:55;2.95;;;1.80;;
46429;SDS011;32131;53.454;-6.180;2023-10-31T10:52:35;2.88;;;1.80;;
46429;SDS011;32131;53.454;-6.180;2023-10-31T10:55:08;2.92;;;1.80;;
46429;SDS011;32131;53.454;-6.180;2023-10-31T10:57:46;4.68;;;1.88;;
46429;SDS011;32131;53.454;-6.180;2023-10-31T11:00:25;5.03;;;2.33;;
46429;SDS011;32131;53.454;-6.180;2023-10-31T11:05:28;7.63;;;2.47;;
46429;SDS011;32131;53.454;-6.180;2023-10-31T11:08:04;9.70;;;2.10;;
46429;SDS011;32131;53.454;-6.180;2023-10-31T11:10:34;4.85;;;1.60;;
46429;SDS011;32131;53.454;-6.180;2023-10-31T11:13:06;7.30;;;2.05;;
46429;SDS011;32131;53.454;-6.180;2023-10-31T11:15:35;3.23;;;1.63;;
46429;SDS011;32131;53.454;-6.180;2023-10-31T11:18:06;1.77;;;1.30;;
46429;SDS011;32131;53.454;-6.180;2023-10-31T11:20:40;3.28;;;1.30;;
46429;SDS011;32131;53.454;-6.180;2023-10-31T11:23:10;3.33;;;1.48;;
46429;SDS011;32131;53.454;-6.180;2023-10-31T11:25:39;3.25;;;1.60;;
46429;SDS011;32131;53.454;-6.180;2023-10-31T11:28:12;2.30;;;1.50;;
46429;SDS011;32131;53.454;-6.180;2023-10-31T11:30:45;2.38;;;1.60;;
46429;SDS011;32131;53.454;-6.180;2023-10-31T11:33:18;3.55;;;1.55;;
46429;SDS011;32131;53.454;-6.180;2023-10-31T11:35:51;3.95;;;1.88;;
46429;SDS011;32131;53.454;-6.180;2023-10-31T11:38:30;2.60;;;1.55;;
46429;SDS011;32131;53.454;-6.180;2023-10-31T11:41:06;5.10;;;1.48;;
46429;SDS011;32131;53.454;-6.180;2023-10-31T12:23:08;9.18;;;1.65;;
46429;SDS011;32131;53.454;-6.180;2023-10-31T12:25:47;2.63;;;1.08;;
46429;SDS011;32131;53.454;-6.180;2023-10-31T12:28:26;1.75;;;1.00;;
46429;SDS011;32131;53.454;-6.180;2023-10-31T12:31:07;1.20;;;0.77;;
46429;SDS011;32131;53.454;-6.180;2023-10-31T12:33:54;2.00;;;0.73;;
46429;SDS011;32131;53.454;-6.180;2023-10-31T12:36:42;1.42;;;0.82;;
46429;SDS011;32131;53.454;-6.180;2023-10-31T12:39:20;3.10;;;0.95;;
46429;SDS011;32131;53.454;-6.180;2023-10-31T12:42:05;2.45;;;1.00;;
46429;SDS011;32131;53.454;-6.180;2023-10-31T12:44:35;1.95;;;0.82;;
46429;SDS011;32131;53.454;-6.180;2023-10-31T12:47:07;2.35;;;0.80;;
46429;SDS011;32131;53.454;-6.180;2023-10-31T12:49:40;3.83;;;1.02;;
46429;SDS011;32131;53.454;-6.180;2023-10-31T12:52:19;1.52;;;0.70;;
46429;SDS011;32131;53.454;-6.180;2023-10-31T12:54:49;1.85;;;0.73;;
46429;SDS011;32131;53.454;-6.180;2023-10-31T12:57:20;4.13;;;0.90;;
46429;SDS011;32131;53.454;-6.180;2023-10-31T12:59:52;5.40;;;1.15;;
46429;SDS011;32131;53.454;-6.180;2023-10-31T13:02:24;1.92;;;0.90;;
46429;SDS011;32131;53.454;-6.180;2023-10-31T13:05:13;2.63;;;1.08;;
46429;SDS011;32131;53.454;-6.180;2023-10-31T13:07:53;0.95;;;0.60;;
46429;SDS011;32131;53.454;-6.180;2023-10-31T13:10:35;1.90;;;0.88;;
46429;SDS011;32131;53.454;-6.180;2023-10-31T13:13:09;2.65;;;0.77;;
46429;SDS011;32131;53.454;-6.180;2023-10-31T13:15:41;1.33;;;0.55;;
46429;SDS011;32131;53.454;-6.180;2023-10-31T13:18:18;2.75;;;0.93;;
46429;SDS011;32131;53.454;-6.180;2023-10-31T13:20:52;1.10;;;0.70;;
46429;SDS011;32131;53.454;-6.180;2023-10-31T13:23:44;1.75;;;0.82;;
46429;SDS011;32131;53.454;-6.180;2023-10-31T13:26:17;2.10;;;0.82;;
46429;SDS011;32131;53.454;-6.180;2023-10-31T13:28:48;1.17;;;0.63;;
46429;SDS011;32131;53.454;-6.180;2023-10-31T13:31:22;1.50;;;0.65;;
46429;SDS011;32131;53.454;-6.180;2023-10-31T13:34:04;1.55;;;0.52;;
46429;SDS011;32131;53.454;-6.180;2023-10-31T13:36:33;1.23;;;0.68;;
46429;SDS011;32131;53.454;-6.180;2023-10-31T13:39:05;3.53;;;0.90;;
46429;SDS011;32131;53.454;-6.180;2023-10-31T13:41:52;4.68;;;0.77;;
46429;SDS011;32131;53.454;-6.180;2023-10-31T13:44:21;1.50;;;0.57;;
46429;SDS011;32131;53.454;-6.180;2023-10-31T13:46:49;1.48;;;0.70;;
46429;SDS011;32131;53.454;-6.180;2023-10-31T13:49:17;2.17;;;0.80;;
46429;SDS011;32131;53.454;-6.180;2023-10-31T13:51:51;1.98;;;0.70;;
46429;SDS011;32131;53.454;-6.180;2023-10-31T13:54:55;1.30;;;0.80;;
46429;SDS011;32131;53.454;-6.180;2023-10-31T14:04:11;1.65;;;0.70;;
46429;SDS011;32131;53.454;-6.180;2023-10-31T14:06:44;5.15;;;0.90;;
46429;SDS011;32131;53.454;-6.180;2023-10-31T14:09:30;3.80;;;0.80;;
46429;SDS011;32131;53.454;-6.180;2023-10-31T14:15:32;3.17;;;0.90;;
46429;SDS011;32131;53.454;-6.180;2023-10-31T14:18:06;8.38;;;1.80;;
46429;SDS011;32131;53.454;-6.180;2023-10-31T14:32:06;2.90;;;1.08;;
46429;SDS011;32131;53.454;-6.180;2023-10-31T14:34:35;6.70;;;1.30;;
46429;SDS011;32131;53.454;-6.180;2023-10-31T14:37:31;4.80;;;1.08;;
46429;SDS011;32131;53.454;-6.180;2023-10-31T14:40:36;3.00;;;0.93;;
46429;SDS011;32131;53.454;-6.180;2023-10-31T14:43:15;3.90;;;0.90;;
46429;SDS011;32131;53.454;-6.180;2023-10-31T14:45:47;2.70;;;1.30;;
46429;SDS011;32131;53.454;-6.180;2023-10-31T14:48:26;2.50;;;1.02;;
46429;SDS011;32131;53.454;-6.180;2023-10-31T14:50:57;3.10;;;1.27;;
46429;SDS011;32131;53.454;-6.180;2023-10-31T14:53:32;2.22;;;1.10;;
46429;SDS011;32131;53.454;-6.180;2023-10-31T14:56:21;4.25;;;1.25;;
46429;SDS011;32131;53.454;-6.180;2023-10-31T15:00:04;2.33;;;1.25;;
46429;SDS011;32131;53.454;-6.180;2023-10-31T15:02:48;2.88;;;1.23;;
46429;SDS011;32131;53.454;-6.180;2023-10-31T15:06:05;2.85;;;1.30;;
46429;SDS011;32131;53.454;-6.180;2023-10-31T15:21:55;8.70;;;1.50;;
46429;SDS011;32131;53.454;-6.180;2023-10-31T15:31:35;2.13;;;0.85;;
46429;SDS011;32131;53.454;-6.180;2023-10-31T15:34:24;2.17;;;0.68;;
46429;SDS011;32131;53.454;-6.180;2023-10-31T15:37:35;4.38;;;0.90;;
46429;SDS011;32131;53.454;-6.180;2023-10-31T15:40:06;1.65;;;0.68;;
46429;SDS011;32131;53.454;-6.180;2023-10-31T15:42:35;1.60;;;0.80;;
46429;SDS011;32131;53.454;-6.180;2023-10-31T15:45:07;3.28;;;0.95;;
46429;SDS011;32131;53.454;-6.180;2023-10-31T15:51:07;1.90;;;0.93;;
46429;SDS011;32131;53.454;-6.180;2023-10-31T15:56:38;11.30;;;1.55;;
46429;SDS011;32131;53.454;-6.180;2023-10-31T15:59:14;2.15;;;1.05;;
46429;SDS011;32131;53.454;-6.180;2023-10-31T16:01:51;3.83;;;1.38;;
46429;SDS011;32131;53.454;-6.180;2023-10-31T16:04:20;4.28;;;1.60;;
46429;SDS011;32131;53.454;-6.180;2023-10-31T16:06:52;5.95;;;2.30;;
46429;SDS011;32131;53.454;-6.180;2023-10-31T16:09:38;3.45;;;1.73;;
46429;SDS011;32131;53.454;-6.180;2023-10-31T16:12:17;4.55;;;2.08;;
46429;SDS011;32131;53.454;-6.180;2023-10-31T16:14:46;4.07;;;2.00;;
46429;SDS011;32131;53.454;-6.180;2023-10-31T16:17:14;6.78;;;1.50;;
46429;SDS011;32131;53.454;-6.180;2023-10-31T16:19:57;2.72;;;1.25;;
46429;SDS011;32131;53.454;-6.180;2023-10-31T16:22:40;4.25;;;1.73;;
46429;SDS011;32131;53.454;-6.180;2023-10-31T16:25:14;6.88;;;1.80;;
46429;SDS011;32131;53.454;-6.180;2023-10-31T16:27:46;4.90;;;1.92;;
46429;SDS011;32131;53.454;-6.180;2023-10-31T16:30:22;5.85;;;2.30;;
46429;SDS011;32131;53.454;-6.180;2023-10-31T16:33:02;6.95;;;1.92;;
46429;SDS011;32131;53.454;-6.180;2023-10-31T16:35:43;4.82;;;1.80;;
46429;SDS011;32131;53.454;-6.180;2023-10-31T16:38:17;2.95;;;1.83;;
46429;SDS011;32131;53.454;-6.180;2023-10-31T16:41:07;2.35;;;1.50;;
46429;SDS011;32131;53.454;-6.180;2023-10-31T16:43:36;4.43;;;1.70;;